sensor_id;sensor_type;location;lat;lon;timestamp;P1;durP1;ratioP1;P2;durP2;ratioP2
11671;SDS011;5892;43.412;24.612;2023-05-18T00:00:45;12.17;;;8.60;;
11671;SDS011;5892;43.412;24.612;2023-05-18T00:03:12;9.47;;;8.43;;
11671;SDS011;5892;43.412;24.612;2023-05-18T00:05:39;10.53;;;8.00;;
11671;SDS011;5892;43.412;24.612;2023-05-18T00:08:07;11.27;;;7.70;;
11671;SDS011;5892;43.412;24.612;2023-05-18T00:10:34;11.23;;;8.10;;
11671;SDS011;5892;43.412;24.612;2023-05-18T00:13:02;32.27;;;29.30;;
11671;SDS011;5892;43.412;24.612;2023-05-18T00:15:29;11.17;;;7.70;;
11671;SDS011;5892;43.412;24.612;2023-05-18T00:17:56;13.30;;;8.20;;
11671;SDS011;5892;43.412;24.612;2023-05-18T00:20:23;11.53;;;8.37;;
11671;SDS011;5892;43.412;24.612;2023-05-18T00:22:50;8.67;;;7.23;;
11671;SDS011;5892;43.412;24.612;2023-05-18T00:25:17;10.60;;;8.00;;
11671;SDS011;5892;43.412;24.612;2023-05-18T00:27:44;11.27;;;7.50;;
11671;SDS011;5892;43.412;24.612;2023-05-18T00:30:15;11.73;;;7.60;;
11671;SDS011;5892;43.412;24.612;2023-05-18T00:32:42;9.40;;;7.67;;
11671;SDS011;5892;43.412;24.612;2023-05-18T00:35:09;8.97;;;7.40;;
11671;SDS011;5892;43.412;24.612;2023-05-18T00:37:36;14.53;;;7.27;;
11671;SDS011;5892;43.412;24.612;2023-05-18T00:40:03;9.63;;;7.40;;
11671;SDS011;5892;43.412;24.612;2023-05-18T00:42:31;8.70;;;7.00;;
11671;SDS011;5892;43.412;24.612;2023-05-18T00:44:58;9.17;;;6.90;;
11671;SDS011;5892;43.412;24.612;2023-05-18T00:47:27;9.00;;;7.30;;
11671;SDS011;5892;43.412;24.612;2023-05-18T00:49:53;10.43;;;7.40;;
11671;SDS011;5892;43.412;24.612;2023-05-18T00:52:20;13.90;;;7.37;;
11671;SDS011;5892;43.412;24.612;2023-05-18T00:54:49;7.87;;;7.00;;
11671;SDS011;5892;43.412;24.612;2023-05-18T00:57:16;9.53;;;7.10;;
11671;SDS011;5892;43.412;24.612;2023-05-18T00:59:44;7.93;;;7.13;;
11671;SDS011;5892;43.412;24.612;2023-05-18T01:02:12;8.83;;;6.63;;
11671;SDS011;5892;43.412;24.612;2023-05-18T01:04:41;7.67;;;6.87;;
11671;SDS011;5892;43.412;24.612;2023-05-18T01:07:08;8.17;;;7.33;;
11671;SDS011;5892;43.412;24.612;2023-05-18T01:09:36;9.27;;;7.20;;
11671;SDS011;5892;43.412;24.612;2023-05-18T01:12:05;12.53;;;7.33;;
11671;SDS011;5892;43.412;24.612;2023-05-18T01:14:40;8.80;;;7.47;;
11671;SDS011;5892;43.412;24.612;2023-05-18T01:17:15;11.87;;;8.33;;
11671;SDS011;5892;43.412;24.612;2023-05-18T01:22:56;8.90;;;7.43;;
11671;SDS011;5892;43.412;24.612;2023-05-18T01:25:39;8.93;;;7.40;;
11671;SDS011;5892;43.412;24.612;2023-05-18T01:28:14;10.60;;;7.37;;
11671;SDS011;5892;43.412;24.612;2023-05-18T01:30:45;13.80;;;8.27;;
11671;SDS011;5892;43.412;24.612;2023-05-18T01:33:13;13.27;;;8.03;;
11671;SDS011;5892;43.412;24.612;2023-05-18T01:35:39;10.87;;;8.37;;
11671;SDS011;5892;43.412;24.612;2023-05-18T01:38:12;11.83;;;8.43;;
11671;SDS011;5892;43.412;24.612;2023-05-18T01:40:42;9.83;;;8.30;;
11671;SDS011;5892;43.412;24.612;2023-05-18T01:43:19;9.13;;;8.10;;
11671;SDS011;5892;43.412;24.612;2023-05-18T01:45:48;11.00;;;8.67;;
11671;SDS011;5892;43.412;24.612;2023-05-18T01:48:22;13.27;;;8.20;;
11671;SDS011;5892;43.412;24.612;2023-05-18T01:50:51;10.07;;;8.53;;
11671;SDS011;5892;43.412;24.612;2023-05-18T01:53:22;12.53;;;8.33;;
11671;SDS011;5892;43.412;24.612;2023-05-18T01:55:53;9.83;;;8.20;;
11671;SDS011;5892;43.412;24.612;2023-05-18T01:58:22;11.17;;;8.03;;
11671;SDS011;5892;43.412;24.612;2023-05-18T02:00:50;8.77;;;7.67;;
11671;SDS011;5892;43.412;24.612;2023-05-18T02:03:17;9.07;;;7.57;;
11671;SDS011;5892;43.412;24.612;2023-05-18T02:05:44;9.30;;;8.03;;
11671;SDS011;5892;43.412;24.612;2023-05-18T02:08:11;11.63;;;7.90;;
11671;SDS011;5892;43.412;24.612;2023-05-18T02:10:38;8.97;;;8.00;;
11671;SDS011;5892;43.412;24.612;2023-05-18T02:13:05;8.40;;;7.53;;
11671;SDS011;5892;43.412;24.612;2023-05-18T02:15:33;9.50;;;8.50;;
11671;SDS011;5892;43.412;24.612;2023-05-18T02:18:00;8.93;;;7.73;;
11671;SDS011;5892;43.412;24.612;2023-05-18T02:20:27;9.13;;;8.23;;
11671;SDS011;5892;43.412;24.612;2023-05-18T02:22:57;10.37;;;8.13;;
11671;SDS011;5892;43.412;24.612;2023-05-18T02:25:24;9.93;;;8.17;;
11671;SDS011;5892;43.412;24.612;2023-05-18T02:27:51;14.00;;;8.50;;
11671;SDS011;5892;43.412;24.612;2023-05-18T02:30:18;11.37;;;8.70;;
11671;SDS011;5892;43.412;24.612;2023-05-18T02:32:47;9.53;;;8.00;;
11671;SDS011;5892;43.412;24.612;2023-05-18T02:35:14;9.47;;;7.97;;
11671;SDS011;5892;43.412;24.612;2023-05-18T02:37:41;10.30;;;8.90;;
11671;SDS011;5892;43.412;24.612;2023-05-18T02:40:09;12.47;;;8.63;;
11671;SDS011;5892;43.412;24.612;2023-05-18T02:42:37;10.27;;;8.53;;
11671;SDS011;5892;43.412;24.612;2023-05-18T02:45:04;11.03;;;9.17;;
11671;SDS011;5892;43.412;24.612;2023-05-18T02:47:32;13.30;;;8.60;;
11671;SDS011;5892;43.412;24.612;2023-05-18T02:50:01;10.90;;;9.23;;
11671;SDS011;5892;43.412;24.612;2023-05-18T02:52:27;10.27;;;9.23;;
11671;SDS011;5892;43.412;24.612;2023-05-18T02:54:55;12.77;;;8.77;;
11671;SDS011;5892;43.412;24.612;2023-05-18T02:57:21;13.80;;;9.17;;
11671;SDS011;5892;43.412;24.612;2023-05-18T02:59:48;10.50;;;9.37;;
11671;SDS011;5892;43.412;24.612;2023-05-18T03:02:15;16.07;;;9.77;;
11671;SDS011;5892;43.412;24.612;2023-05-18T03:04:42;12.40;;;10.23;;
11671;SDS011;5892;43.412;24.612;2023-05-18T03:07:10;12.50;;;9.63;;
11671;SDS011;5892;43.412;24.612;2023-05-18T03:09:37;11.33;;;9.57;;
11671;SDS011;5892;43.412;24.612;2023-05-18T03:12:04;14.90;;;10.40;;
11671;SDS011;5892;43.412;24.612;2023-05-18T03:14:31;13.20;;;9.67;;
11671;SDS011;5892;43.412;24.612;2023-05-18T03:16:58;12.93;;;10.47;;
11671;SDS011;5892;43.412;24.612;2023-05-18T03:19:25;14.27;;;10.57;;
11671;SDS011;5892;43.412;24.612;2023-05-18T03:21:52;13.57;;;10.70;;
11671;SDS011;5892;43.412;24.612;2023-05-18T03:24:21;15.20;;;10.10;;
11671;SDS011;5892;43.412;24.612;2023-05-18T03:26:50;11.10;;;9.90;;
11671;SDS011;5892;43.412;24.612;2023-05-18T03:29:18;14.13;;;10.10;;
11671;SDS011;5892;43.412;24.612;2023-05-18T03:31:45;11.60;;;10.50;;
11671;SDS011;5892;43.412;24.612;2023-05-18T03:34:13;11.10;;;10.07;;
11671;SDS011;5892;43.412;24.612;2023-05-18T03:36:40;12.37;;;9.47;;
11671;SDS011;5892;43.412;24.612;2023-05-18T03:39:11;11.03;;;9.93;;
11671;SDS011;5892;43.412;24.612;2023-05-18T03:41:39;11.63;;;9.57;;
11671;SDS011;5892;43.412;24.612;2023-05-18T03:44:06;12.73;;;9.70;;
11671;SDS011;5892;43.412;24.612;2023-05-18T03:46:33;11.57;;;9.57;;
11671;SDS011;5892;43.412;24.612;2023-05-18T03:49:00;10.73;;;9.60;;
11671;SDS011;5892;43.412;24.612;2023-05-18T03:51:29;13.40;;;10.03;;
11671;SDS011;5892;43.412;24.612;2023-05-18T03:53:56;11.13;;;10.03;;
11671;SDS011;5892;43.412;24.612;2023-05-18T03:56:22;15.20;;;10.83;;
11671;SDS011;5892;43.412;24.612;2023-05-18T03:58:51;13.77;;;9.90;;
11671;SDS011;5892;43.412;24.612;2023-05-18T04:01:18;11.33;;;10.17;;
11671;SDS011;5892;43.412;24.612;2023-05-18T04:03:47;11.00;;;9.90;;
11671;SDS011;5892;43.412;24.612;2023-05-18T04:06:15;12.23;;;10.10;;
11671;SDS011;5892;43.412;24.612;2023-05-18T04:08:42;11.97;;;10.53;;
11671;SDS011;5892;43.412;24.612;2023-05-18T04:11:10;16.00;;;10.83;;
11671;SDS011;5892;43.412;24.612;2023-05-18T04:13:37;13.00;;;10.40;;
11671;SDS011;5892;43.412;24.612;2023-05-18T04:16:06;13.57;;;10.20;;
11671;SDS011;5892;43.412;24.612;2023-05-18T04:18:34;12.40;;;10.27;;
11671;SDS011;5892;43.412;24.612;2023-05-18T04:21:01;11.07;;;9.63;;
11671;SDS011;5892;43.412;24.612;2023-05-18T04:23:30;12.53;;;10.03;;
11671;SDS011;5892;43.412;24.612;2023-05-18T04:25:57;13.23;;;9.77;;
11671;SDS011;5892;43.412;24.612;2023-05-18T04:28:24;12.90;;;10.53;;
11671;SDS011;5892;43.412;24.612;2023-05-18T04:30:52;16.33;;;10.60;;
11671;SDS011;5892;43.412;24.612;2023-05-18T04:33:20;15.80;;;10.50;;
11671;SDS011;5892;43.412;24.612;2023-05-18T04:35:48;13.03;;;10.70;;
11671;SDS011;5892;43.412;24.612;2023-05-18T04:38:19;11.10;;;9.80;;
11671;SDS011;5892;43.412;24.612;2023-05-18T04:40:47;18.23;;;10.50;;
11671;SDS011;5892;43.412;24.612;2023-05-18T04:43:14;12.63;;;10.17;;
11671;SDS011;5892;43.412;24.612;2023-05-18T04:45:41;13.20;;;10.10;;
11671;SDS011;5892;43.412;24.612;2023-05-18T04:48:10;14.00;;;10.30;;
11671;SDS011;5892;43.412;24.612;2023-05-18T04:50:39;13.83;;;10.10;;
11671;SDS011;5892;43.412;24.612;2023-05-18T04:53:07;15.27;;;10.07;;
11671;SDS011;5892;43.412;24.612;2023-05-18T04:55:36;14.73;;;10.70;;
11671;SDS011;5892;43.412;24.612;2023-05-18T04:58:06;13.70;;;9.67;;
11671;SDS011;5892;43.412;24.612;2023-05-18T05:00:34;14.00;;;10.13;;
11671;SDS011;5892;43.412;24.612;2023-05-18T05:03:01;11.83;;;9.53;;
11671;SDS011;5892;43.412;24.612;2023-05-18T05:05:28;13.17;;;9.73;;
11671;SDS011;5892;43.412;24.612;2023-05-18T05:07:56;11.93;;;9.47;;
11671;SDS011;5892;43.412;24.612;2023-05-18T05:10:24;14.07;;;10.07;;
11671;SDS011;5892;43.412;24.612;2023-05-18T05:12:52;13.67;;;10.17;;
11671;SDS011;5892;43.412;24.612;2023-05-18T05:15:19;12.07;;;9.90;;
11671;SDS011;5892;43.412;24.612;2023-05-18T05:17:46;11.67;;;9.57;;
11671;SDS011;5892;43.412;24.612;2023-05-18T05:20:13;18.70;;;16.40;;
11671;SDS011;5892;43.412;24.612;2023-05-18T05:22:40;12.30;;;10.30;;
11671;SDS011;5892;43.412;24.612;2023-05-18T05:25:09;13.60;;;10.67;;
11671;SDS011;5892;43.412;24.612;2023-05-18T05:27:36;12.47;;;10.13;;
11671;SDS011;5892;43.412;24.612;2023-05-18T05:30:03;16.53;;;11.00;;
11671;SDS011;5892;43.412;24.612;2023-05-18T05:32:31;15.23;;;10.40;;
11671;SDS011;5892;43.412;24.612;2023-05-18T05:34:59;12.30;;;10.00;;
11671;SDS011;5892;43.412;24.612;2023-05-18T05:37:25;13.00;;;10.57;;
11671;SDS011;5892;43.412;24.612;2023-05-18T05:39:53;14.57;;;10.13;;
11671;SDS011;5892;43.412;24.612;2023-05-18T05:42:22;16.93;;;9.73;;
11671;SDS011;5892;43.412;24.612;2023-05-18T05:44:49;14.67;;;10.07;;
11671;SDS011;5892;43.412;24.612;2023-05-18T05:47:16;11.20;;;9.87;;
11671;SDS011;5892;43.412;24.612;2023-05-18T05:49:43;17.90;;;9.77;;
11671;SDS011;5892;43.412;24.612;2023-05-18T05:52:10;10.97;;;9.60;;
11671;SDS011;5892;43.412;24.612;2023-05-18T05:54:37;15.43;;;9.80;;
11671;SDS011;5892;43.412;24.612;2023-05-18T05:57:05;14.40;;;10.30;;
11671;SDS011;5892;43.412;24.612;2023-05-18T05:59:33;12.30;;;9.70;;
11671;SDS011;5892;43.412;24.612;2023-05-18T06:02:00;13.73;;;9.50;;
11671;SDS011;5892;43.412;24.612;2023-05-18T06:04:27;11.43;;;9.90;;
11671;SDS011;5892;43.412;24.612;2023-05-18T06:06:54;13.30;;;9.30;;
11671;SDS011;5892;43.412;24.612;2023-05-18T06:09:21;11.20;;;9.27;;
11671;SDS011;5892;43.412;24.612;2023-05-18T06:11:48;10.43;;;9.03;;
11671;SDS011;5892;43.412;24.612;2023-05-18T06:14:14;13.57;;;8.80;;
11671;SDS011;5892;43.412;24.612;2023-05-18T06:16:43;13.30;;;9.20;;
11671;SDS011;5892;43.412;24.612;2023-05-18T06:19:09;12.10;;;8.67;;
11671;SDS011;5892;43.412;24.612;2023-05-18T06:21:36;11.50;;;8.67;;
11671;SDS011;5892;43.412;24.612;2023-05-18T06:24:04;11.73;;;9.10;;
11671;SDS011;5892;43.412;24.612;2023-05-18T06:26:31;9.63;;;8.50;;
11671;SDS011;5892;43.412;24.612;2023-05-18T06:28:58;11.53;;;8.77;;
11671;SDS011;5892;43.412;24.612;2023-05-18T06:31:25;12.67;;;8.73;;
11671;SDS011;5892;43.412;24.612;2023-05-18T06:33:53;13.47;;;8.20;;
11671;SDS011;5892;43.412;24.612;2023-05-18T06:36:20;11.60;;;8.53;;
11671;SDS011;5892;43.412;24.612;2023-05-18T06:38:47;10.80;;;7.70;;
11671;SDS011;5892;43.412;24.612;2023-05-18T06:41:14;9.33;;;7.80;;
11671;SDS011;5892;43.412;24.612;2023-05-18T06:43:41;14.13;;;7.83;;
11671;SDS011;5892;43.412;24.612;2023-05-18T06:46:08;12.07;;;7.30;;
11671;SDS011;5892;43.412;24.612;2023-05-18T06:48:43;8.57;;;7.37;;
11671;SDS011;5892;43.412;24.612;2023-05-18T06:51:12;10.63;;;7.73;;
11671;SDS011;5892;43.412;24.612;2023-05-18T06:53:40;9.37;;;6.90;;
11671;SDS011;5892;43.412;24.612;2023-05-18T06:56:07;10.13;;;6.93;;
11671;SDS011;5892;43.412;24.612;2023-05-18T06:58:35;8.30;;;6.73;;
11671;SDS011;5892;43.412;24.612;2023-05-18T07:01:02;11.27;;;6.77;;
11671;SDS011;5892;43.412;24.612;2023-05-18T07:03:29;11.40;;;7.87;;
11671;SDS011;5892;43.412;24.612;2023-05-18T07:05:56;8.33;;;6.47;;
11671;SDS011;5892;43.412;24.612;2023-05-18T07:08:25;8.33;;;6.47;;
11671;SDS011;5892;43.412;24.612;2023-05-18T07:10:51;8.30;;;6.60;;
11671;SDS011;5892;43.412;24.612;2023-05-18T07:13:21;9.40;;;6.73;;
11671;SDS011;5892;43.412;24.612;2023-05-18T07:15:48;9.73;;;7.40;;
11671;SDS011;5892;43.412;24.612;2023-05-18T07:18:15;7.33;;;6.63;;
11671;SDS011;5892;43.412;24.612;2023-05-18T07:20:42;8.87;;;7.23;;
11671;SDS011;5892;43.412;24.612;2023-05-18T07:23:11;9.77;;;7.40;;
11671;SDS011;5892;43.412;24.612;2023-05-18T07:25:40;10.13;;;7.27;;
11671;SDS011;5892;43.412;24.612;2023-05-18T07:28:07;10.60;;;7.53;;
11671;SDS011;5892;43.412;24.612;2023-05-18T07:30:35;11.53;;;7.73;;
11671;SDS011;5892;43.412;24.612;2023-05-18T07:33:03;9.13;;;6.70;;
11671;SDS011;5892;43.412;24.612;2023-05-18T07:35:30;10.90;;;6.60;;
11671;SDS011;5892;43.412;24.612;2023-05-18T07:37:56;7.20;;;6.47;;
11671;SDS011;5892;43.412;24.612;2023-05-18T07:40:23;7.70;;;6.73;;
11671;SDS011;5892;43.412;24.612;2023-05-18T07:42:52;8.13;;;6.77;;
11671;SDS011;5892;43.412;24.612;2023-05-18T07:45:18;9.03;;;6.77;;
11671;SDS011;5892;43.412;24.612;2023-05-18T07:47:46;8.53;;;6.60;;
11671;SDS011;5892;43.412;24.612;2023-05-18T07:50:12;9.13;;;6.47;;
11671;SDS011;5892;43.412;24.612;2023-05-18T07:52:39;7.73;;;6.93;;
11671;SDS011;5892;43.412;24.612;2023-05-18T07:55:07;9.83;;;6.57;;
11671;SDS011;5892;43.412;24.612;2023-05-18T07:57:34;8.17;;;6.50;;
11671;SDS011;5892;43.412;24.612;2023-05-18T08:00:03;8.73;;;6.53;;
11671;SDS011;5892;43.412;24.612;2023-05-18T08:02:33;8.33;;;6.93;;
11671;SDS011;5892;43.412;24.612;2023-05-18T08:04:59;9.13;;;7.00;;
11671;SDS011;5892;43.412;24.612;2023-05-18T08:07:27;9.00;;;6.33;;
11671;SDS011;5892;43.412;24.612;2023-05-18T08:09:54;9.47;;;6.03;;
11671;SDS011;5892;43.412;24.612;2023-05-18T08:12:21;6.70;;;5.60;;
11671;SDS011;5892;43.412;24.612;2023-05-18T08:14:48;13.23;;;6.23;;
11671;SDS011;5892;43.412;24.612;2023-05-18T08:17:16;13.00;;;6.40;;
11671;SDS011;5892;43.412;24.612;2023-05-18T08:19:43;7.10;;;6.40;;
11671;SDS011;5892;43.412;24.612;2023-05-18T08:22:11;9.73;;;6.27;;
11671;SDS011;5892;43.412;24.612;2023-05-18T08:24:38;7.60;;;6.17;;
11671;SDS011;5892;43.412;24.612;2023-05-18T08:27:05;8.37;;;6.63;;
11671;SDS011;5892;43.412;24.612;2023-05-18T08:29:34;9.90;;;6.30;;
11671;SDS011;5892;43.412;24.612;2023-05-18T08:32:00;9.93;;;5.30;;
11671;SDS011;5892;43.412;24.612;2023-05-18T08:34:29;8.60;;;5.83;;
11671;SDS011;5892;43.412;24.612;2023-05-18T08:36:56;8.50;;;5.80;;
11671;SDS011;5892;43.412;24.612;2023-05-18T08:39:23;6.43;;;5.10;;
11671;SDS011;5892;43.412;24.612;2023-05-18T08:41:53;7.93;;;5.57;;
11671;SDS011;5892;43.412;24.612;2023-05-18T08:44:25;8.57;;;6.03;;
11671;SDS011;5892;43.412;24.612;2023-05-18T08:46:55;7.60;;;5.50;;
11671;SDS011;5892;43.412;24.612;2023-05-18T08:49:23;7.43;;;5.20;;
11671;SDS011;5892;43.412;24.612;2023-05-18T08:51:55;8.10;;;6.00;;
11671;SDS011;5892;43.412;24.612;2023-05-18T08:54:23;6.27;;;5.23;;
11671;SDS011;5892;43.412;24.612;2023-05-18T08:56:50;6.77;;;5.30;;
11671;SDS011;5892;43.412;24.612;2023-05-18T08:59:18;7.63;;;5.67;;
11671;SDS011;5892;43.412;24.612;2023-05-18T09:01:49;6.70;;;5.30;;
11671;SDS011;5892;43.412;24.612;2023-05-18T09:04:17;7.60;;;5.10;;
11671;SDS011;5892;43.412;24.612;2023-05-18T09:06:44;6.73;;;4.97;;
11671;SDS011;5892;43.412;24.612;2023-05-18T09:09:14;7.53;;;4.80;;
11671;SDS011;5892;43.412;24.612;2023-05-18T09:11:41;6.67;;;5.03;;
11671;SDS011;5892;43.412;24.612;2023-05-18T09:14:08;6.97;;;4.50;;
11671;SDS011;5892;43.412;24.612;2023-05-18T09:16:36;6.37;;;4.57;;
11671;SDS011;5892;43.412;24.612;2023-05-18T09:19:03;4.73;;;4.23;;
11671;SDS011;5892;43.412;24.612;2023-05-18T09:21:32;5.83;;;3.53;;
11671;SDS011;5892;43.412;24.612;2023-05-18T09:24:02;6.03;;;3.63;;
11671;SDS011;5892;43.412;24.612;2023-05-18T09:26:31;6.43;;;3.80;;
11671;SDS011;5892;43.412;24.612;2023-05-18T09:28:58;4.90;;;3.87;;
11671;SDS011;5892;43.412;24.612;2023-05-18T09:31:25;4.47;;;3.70;;
11671;SDS011;5892;43.412;24.612;2023-05-18T09:33:52;6.87;;;3.87;;
11671;SDS011;5892;43.412;24.612;2023-05-18T09:36:23;5.27;;;3.37;;
11671;SDS011;5892;43.412;24.612;2023-05-18T09:38:53;7.33;;;3.80;;
11671;SDS011;5892;43.412;24.612;2023-05-18T09:41:20;4.47;;;3.50;;
11671;SDS011;5892;43.412;24.612;2023-05-18T09:43:48;17.03;;;6.27;;
11671;SDS011;5892;43.412;24.612;2023-05-18T09:46:16;8.07;;;4.57;;
11671;SDS011;5892;43.412;24.612;2023-05-18T09:48:45;6.40;;;4.17;;
11671;SDS011;5892;43.412;24.612;2023-05-18T09:51:14;5.27;;;3.90;;
11671;SDS011;5892;43.412;24.612;2023-05-18T09:53:42;6.60;;;3.83;;
11671;SDS011;5892;43.412;24.612;2023-05-18T09:56:12;12.77;;;3.80;;
11671;SDS011;5892;43.412;24.612;2023-05-18T09:58:44;7.67;;;4.03;;
11671;SDS011;5892;43.412;24.612;2023-05-18T10:01:12;7.07;;;4.00;;
11671;SDS011;5892;43.412;24.612;2023-05-18T10:03:39;7.03;;;3.83;;
11671;SDS011;5892;43.412;24.612;2023-05-18T10:06:06;5.50;;;3.70;;
11671;SDS011;5892;43.412;24.612;2023-05-18T10:08:35;9.00;;;4.60;;
11671;SDS011;5892;43.412;24.612;2023-05-18T10:11:02;6.97;;;4.13;;
11671;SDS011;5892;43.412;24.612;2023-05-18T10:13:30;6.73;;;4.07;;
11671;SDS011;5892;43.412;24.612;2023-05-18T10:15:58;4.87;;;4.03;;
11671;SDS011;5892;43.412;24.612;2023-05-18T10:18:30;7.57;;;4.07;;
11671;SDS011;5892;43.412;24.612;2023-05-18T10:20:57;6.07;;;3.87;;
11671;SDS011;5892;43.412;24.612;2023-05-18T10:23:26;7.07;;;3.97;;
11671;SDS011;5892;43.412;24.612;2023-05-18T10:25:57;6.00;;;3.90;;
11671;SDS011;5892;43.412;24.612;2023-05-18T10:28:25;8.13;;;3.90;;
11671;SDS011;5892;43.412;24.612;2023-05-18T10:30:53;5.03;;;3.50;;
11671;SDS011;5892;43.412;24.612;2023-05-18T10:33:22;4.70;;;3.03;;
11671;SDS011;5892;43.412;24.612;2023-05-18T10:35:52;6.60;;;3.90;;
11671;SDS011;5892;43.412;24.612;2023-05-18T10:38:20;6.40;;;3.57;;
11671;SDS011;5892;43.412;24.612;2023-05-18T10:40:48;4.10;;;2.70;;
11671;SDS011;5892;43.412;24.612;2023-05-18T10:43:19;5.90;;;3.70;;
11671;SDS011;5892;43.412;24.612;2023-05-18T10:45:50;6.20;;;3.80;;
11671;SDS011;5892;43.412;24.612;2023-05-18T10:48:19;4.30;;;3.50;;
11671;SDS011;5892;43.412;24.612;2023-05-18T10:50:47;6.63;;;3.93;;
11671;SDS011;5892;43.412;24.612;2023-05-18T10:53:17;6.83;;;3.60;;
11671;SDS011;5892;43.412;24.612;2023-05-18T10:55:45;7.87;;;3.87;;
11671;SDS011;5892;43.412;24.612;2023-05-18T10:58:13;4.73;;;3.83;;
11671;SDS011;5892;43.412;24.612;2023-05-18T11:00:43;5.00;;;3.50;;
11671;SDS011;5892;43.412;24.612;2023-05-18T11:03:13;5.73;;;3.17;;
11671;SDS011;5892;43.412;24.612;2023-05-18T11:05:42;4.03;;;3.10;;
11671;SDS011;5892;43.412;24.612;2023-05-18T11:08:09;4.53;;;3.00;;
11671;SDS011;5892;43.412;24.612;2023-05-18T11:10:41;6.20;;;3.40;;
11671;SDS011;5892;43.412;24.612;2023-05-18T11:13:11;6.53;;;3.30;;
11671;SDS011;5892;43.412;24.612;2023-05-18T11:18:37;5.40;;;2.80;;
11671;SDS011;5892;43.412;24.612;2023-05-18T11:26:47;8.67;;;4.50;;
11671;SDS011;5892;43.412;24.612;2023-05-18T11:29:16;6.70;;;3.47;;
11671;SDS011;5892;43.412;24.612;2023-05-18T11:31:44;4.20;;;3.30;;
11671;SDS011;5892;43.412;24.612;2023-05-18T11:37:02;7.17;;;3.80;;
11671;SDS011;5892;43.412;24.612;2023-05-18T11:39:31;4.17;;;3.23;;
11671;SDS011;5892;43.412;24.612;2023-05-18T11:42:00;5.87;;;3.27;;
11671;SDS011;5892;43.412;24.612;2023-05-18T11:44:28;6.20;;;3.20;;
11671;SDS011;5892;43.412;24.612;2023-05-18T11:46:58;5.40;;;3.10;;
11671;SDS011;5892;43.412;24.612;2023-05-18T11:49:28;5.13;;;3.00;;
11671;SDS011;5892;43.412;24.612;2023-05-18T11:52:00;4.87;;;3.03;;
11671;SDS011;5892;43.412;24.612;2023-05-18T11:54:41;5.63;;;2.83;;
11671;SDS011;5892;43.412;24.612;2023-05-18T11:57:12;6.37;;;2.70;;
11671;SDS011;5892;43.412;24.612;2023-05-18T11:59:41;2.93;;;2.57;;
11671;SDS011;5892;43.412;24.612;2023-05-18T12:02:09;2.40;;;2.03;;
11671;SDS011;5892;43.412;24.612;2023-05-18T12:04:44;4.90;;;2.60;;
11671;SDS011;5892;43.412;24.612;2023-05-18T12:07:12;3.40;;;2.40;;
11671;SDS011;5892;43.412;24.612;2023-05-18T12:09:39;5.90;;;2.50;;
11671;SDS011;5892;43.412;24.612;2023-05-18T12:12:08;7.20;;;2.70;;
11671;SDS011;5892;43.412;24.612;2023-05-18T12:14:38;4.37;;;2.40;;
11671;SDS011;5892;43.412;24.612;2023-05-18T12:17:07;4.50;;;2.53;;
11671;SDS011;5892;43.412;24.612;2023-05-18T12:19:40;4.07;;;2.50;;
11671;SDS011;5892;43.412;24.612;2023-05-18T12:22:08;4.43;;;3.07;;
11671;SDS011;5892;43.412;24.612;2023-05-18T12:24:36;5.37;;;2.97;;
11671;SDS011;5892;43.412;24.612;2023-05-18T12:27:04;4.97;;;3.20;;
11671;SDS011;5892;43.412;24.612;2023-05-18T12:29:32;3.97;;;2.73;;
11671;SDS011;5892;43.412;24.612;2023-05-18T12:32:03;2.23;;;2.03;;
11671;SDS011;5892;43.412;24.612;2023-05-18T12:34:31;1.67;;;1.57;;
11671;SDS011;5892;43.412;24.612;2023-05-18T12:36:58;5.07;;;2.13;;
11671;SDS011;5892;43.412;24.612;2023-05-18T12:39:25;4.27;;;2.10;;
11671;SDS011;5892;43.412;24.612;2023-05-18T12:41:51;2.90;;;2.03;;
11671;SDS011;5892;43.412;24.612;2023-05-18T12:44:19;4.67;;;1.83;;
11671;SDS011;5892;43.412;24.612;2023-05-18T12:46:46;2.70;;;1.73;;
11671;SDS011;5892;43.412;24.612;2023-05-18T12:49:16;4.60;;;2.20;;
11671;SDS011;5892;43.412;24.612;2023-05-18T12:51:43;3.00;;;1.80;;
11671;SDS011;5892;43.412;24.612;2023-05-18T12:54:10;2.70;;;2.17;;
11671;SDS011;5892;43.412;24.612;2023-05-18T12:56:50;3.33;;;2.10;;
11671;SDS011;5892;43.412;24.612;2023-05-18T12:59:23;4.77;;;2.20;;
11671;SDS011;5892;43.412;24.612;2023-05-18T13:01:51;5.07;;;2.30;;
11671;SDS011;5892;43.412;24.612;2023-05-18T13:04:19;3.57;;;1.97;;
11671;SDS011;5892;43.412;24.612;2023-05-18T13:06:46;5.30;;;2.40;;
11671;SDS011;5892;43.412;24.612;2023-05-18T13:09:14;7.80;;;2.57;;
11671;SDS011;5892;43.412;24.612;2023-05-18T13:11:45;4.47;;;2.13;;
11671;SDS011;5892;43.412;24.612;2023-05-18T13:14:13;3.60;;;1.60;;
11671;SDS011;5892;43.412;24.612;2023-05-18T13:16:48;3.80;;;1.87;;
11671;SDS011;5892;43.412;24.612;2023-05-18T13:19:16;3.43;;;1.70;;
11671;SDS011;5892;43.412;24.612;2023-05-18T13:21:45;3.43;;;1.70;;
11671;SDS011;5892;43.412;24.612;2023-05-18T13:24:20;2.73;;;1.50;;
11671;SDS011;5892;43.412;24.612;2023-05-18T13:26:47;3.67;;;1.83;;
11671;SDS011;5892;43.412;24.612;2023-05-18T13:29:13;5.67;;;1.80;;
11671;SDS011;5892;43.412;24.612;2023-05-18T13:31:41;3.77;;;2.00;;
11671;SDS011;5892;43.412;24.612;2023-05-18T13:34:08;5.47;;;1.70;;
11671;SDS011;5892;43.412;24.612;2023-05-18T13:36:35;3.27;;;1.87;;
11671;SDS011;5892;43.412;24.612;2023-05-18T13:39:03;3.10;;;1.93;;
11671;SDS011;5892;43.412;24.612;2023-05-18T13:41:31;3.30;;;2.00;;
11671;SDS011;5892;43.412;24.612;2023-05-18T13:43:59;5.33;;;1.97;;
11671;SDS011;5892;43.412;24.612;2023-05-18T13:46:26;3.13;;;2.00;;
11671;SDS011;5892;43.412;24.612;2023-05-18T13:48:53;3.00;;;2.00;;
11671;SDS011;5892;43.412;24.612;2023-05-18T13:51:20;5.47;;;1.90;;
11671;SDS011;5892;43.412;24.612;2023-05-18T13:53:47;3.47;;;1.60;;
11671;SDS011;5892;43.412;24.612;2023-05-18T13:56:15;3.93;;;1.60;;
11671;SDS011;5892;43.412;24.612;2023-05-18T13:58:42;4.50;;;1.57;;
11671;SDS011;5892;43.412;24.612;2023-05-18T14:01:08;4.17;;;1.30;;
11671;SDS011;5892;43.412;24.612;2023-05-18T14:03:36;5.43;;;1.67;;
11671;SDS011;5892;43.412;24.612;2023-05-18T14:06:04;5.33;;;1.70;;
11671;SDS011;5892;43.412;24.612;2023-05-18T14:08:31;3.03;;;1.40;;
11671;SDS011;5892;43.412;24.612;2023-05-18T14:10:58;6.87;;;3.27;;
11671;SDS011;5892;43.412;24.612;2023-05-18T14:13:26;10.80;;;2.57;;
11671;SDS011;5892;43.412;24.612;2023-05-18T14:15:53;11.83;;;3.50;;
11671;SDS011;5892;43.412;24.612;2023-05-18T14:18:20;4.10;;;1.93;;
11671;SDS011;5892;43.412;24.612;2023-05-18T14:20:47;3.10;;;1.83;;
11671;SDS011;5892;43.412;24.612;2023-05-18T14:23:14;4.67;;;1.90;;
11671;SDS011;5892;43.412;24.612;2023-05-18T14:25:41;6.03;;;1.53;;
11671;SDS011;5892;43.412;24.612;2023-05-18T14:28:09;2.60;;;1.60;;
11671;SDS011;5892;43.412;24.612;2023-05-18T14:30:38;1.70;;;1.40;;
11671;SDS011;5892;43.412;24.612;2023-05-18T14:33:05;1.90;;;1.50;;
11671;SDS011;5892;43.412;24.612;2023-05-18T14:35:32;3.83;;;2.00;;
11671;SDS011;5892;43.412;24.612;2023-05-18T14:37:59;3.87;;;1.80;;
11671;SDS011;5892;43.412;24.612;2023-05-18T14:40:26;2.57;;;1.67;;
11671;SDS011;5892;43.412;24.612;2023-05-18T14:42:53;6.30;;;2.17;;
11671;SDS011;5892;43.412;24.612;2023-05-18T14:45:20;7.00;;;1.90;;
11671;SDS011;5892;43.412;24.612;2023-05-18T14:47:48;3.57;;;1.90;;
11671;SDS011;5892;43.412;24.612;2023-05-18T14:50:15;5.23;;;1.80;;
11671;SDS011;5892;43.412;24.612;2023-05-18T14:52:42;3.43;;;1.60;;
11671;SDS011;5892;43.412;24.612;2023-05-18T14:55:09;3.77;;;1.73;;
11671;SDS011;5892;43.412;24.612;2023-05-18T14:57:36;4.93;;;1.70;;
11671;SDS011;5892;43.412;24.612;2023-05-18T15:00:03;3.07;;;1.60;;